KGXF

Gila Bend Af Aux Airport

Gila Bend, Arizona, USA
METAR KGXF 210358Z AUTO 23007KT 8SM CLR 10/M02 A3000 RMK AO2 SLP156 T00991022
Observed Flight Rules
Jan-21 @ 03:58 UTC (49 minutes ago) Visual Flight Rules
Wind Visibility Clouds
230° at 7 knots 8 miles
  • Clear skies
Temperatures Readings
Current 10°C / 50°F
Dewpoint -2°C / 28°F
Humidity 43%
Altimeter 30" Hg
Pressure 1015.6 hPa
Elevation 262
METAR KGXF 210358Z AUTO 23007KT 8SM CLR 10/M02 A3000 RMK AO2 SLP156 T00991022
Observed Flight Rules
Jan-21 @ 03:58 UTC
(49 minutes ago)
VFR
Wind Visibility
230° at 7 knots 8 miles
Clouds
  • Clear skies
Temperature Dewpoint
10°C / 50°F -2°C / 28°F
Humidity Altimeter Pressure
43% 30" Hg 1015.6 hPa